createdAt,value
2018-11-02T00:00:59.898Z,9.21
2018-11-02T00:01:59.876Z,9.29
2018-11-02T00:02:59.855Z,9.20
2018-11-02T00:03:59.838Z,9.21
2018-11-02T00:04:59.818Z,9.18
2018-11-02T00:05:59.822Z,9.13
2018-11-02T00:06:59.782Z,9.10
2018-11-02T00:07:59.756Z,9.10
2018-11-02T00:08:59.746Z,8.95
2018-11-02T00:09:59.720Z,8.92
2018-11-02T00:10:59.697Z,8.84
2018-11-02T00:11:59.681Z,8.81
2018-11-02T00:12:59.660Z,8.83
2018-11-02T00:13:59.640Z,8.86
2018-11-02T00:14:59.616Z,8.80
2018-11-02T00:15:59.601Z,8.80
2018-11-02T00:16:59.576Z,8.86
2018-11-02T00:17:59.561Z,8.79
2018-11-02T00:18:59.543Z,8.87
2018-11-02T00:19:59.518Z,8.81
2018-11-02T00:20:59.498Z,8.79
2018-11-02T00:21:59.482Z,8.76
2018-11-02T00:22:59.458Z,8.71
2018-11-02T00:23:59.438Z,8.70
2018-11-02T00:24:59.418Z,8.68
2018-11-02T00:25:59.405Z,8.62
2018-11-02T00:26:59.378Z,8.56
2018-11-02T00:27:59.360Z,8.55
2018-11-02T00:28:59.340Z,8.65
2018-11-02T00:29:59.323Z,8.63
2018-11-02T00:30:59.300Z,8.59
2018-11-02T00:31:59.418Z,8.63
2018-11-02T00:32:59.259Z,8.53
2018-11-02T00:33:59.242Z,8.65
2018-11-02T00:34:59.239Z,8.62
2018-11-02T00:35:59.206Z,8.63
2018-11-02T00:36:59.191Z,8.63
2018-11-02T00:37:59.164Z,8.65
2018-11-02T00:38:59.150Z,8.58
2018-11-02T00:39:59.123Z,8.59
2018-11-02T00:40:59.105Z,8.65
2018-11-02T00:41:59.080Z,8.56
2018-11-02T00:42:59.063Z,8.63
2018-11-02T00:43:59.100Z,8.59
2018-11-02T00:44:59.029Z,8.65
2018-11-02T00:45:59.004Z,8.58
2018-11-02T00:46:58.980Z,8.66
2018-11-02T00:47:58.965Z,8.66
2018-11-02T00:48:58.944Z,8.66
2018-11-02T00:49:58.924Z,8.63
2018-11-02T00:50:58.964Z,8.70
2018-11-02T00:51:58.882Z,8.70
2018-11-02T00:52:58.863Z,8.65
2018-11-02T00:53:58.846Z,8.55
2018-11-02T00:54:58.832Z,8.50
2018-11-02T00:55:58.802Z,8.56
2018-11-02T00:56:58.779Z,8.59
2018-11-02T00:57:58.762Z,8.55
2018-11-02T00:58:58.743Z,8.55
2018-11-02T00:59:58.720Z,8.55
2018-11-02T01:00:58.708Z,8.56
2018-11-02T01:01:58.684Z,8.52
2018-11-02T01:02:58.659Z,8.53
2018-11-02T01:03:58.644Z,8.56
2018-11-02T01:04:58.628Z,8.56
2018-11-02T01:05:58.602Z,8.58
2018-11-02T01:06:58.583Z,8.56
2018-11-02T01:07:58.562Z,8.48
2018-11-02T01:08:58.545Z,8.52
2018-11-02T01:09:58.524Z,8.48
2018-11-02T01:10:58.500Z,8.44
2018-11-02T01:11:58.481Z,8.43
2018-11-02T01:12:58.461Z,8.23
2018-11-02T01:13:58.450Z,8.36
2018-11-02T01:14:58.423Z,8.40
2018-11-02T01:15:58.399Z,8.25
2018-11-02T01:16:58.380Z,8.22
2018-11-02T01:17:58.364Z,8.29
2018-11-02T01:18:58.340Z,8.26
2018-11-02T01:19:58.324Z,8.20
2018-11-02T01:20:58.301Z,8.23
2018-11-02T01:21:58.281Z,8.07
2018-11-02T01:22:58.262Z,8.16
2018-11-02T01:23:58.245Z,8.07
2018-11-02T01:24:58.227Z,8.08
2018-11-02T01:25:58.228Z,8.02
2018-11-02T01:26:58.182Z,8.08
2018-11-02T01:27:58.158Z,8.08
2018-11-02T01:28:58.146Z,7.98
2018-11-02T01:29:58.123Z,8.04
2018-11-02T01:30:58.102Z,8.07
2018-11-02T01:31:58.082Z,8.11
2018-11-02T01:32:58.063Z,8.18
2018-11-02T01:33:58.041Z,8.16
2018-11-02T01:34:58.021Z,8.19
2018-11-02T01:35:58.000Z,8.23
2018-11-02T01:36:57.981Z,8.26
2018-11-02T01:37:57.959Z,8.15
2018-11-02T01:38:57.937Z,8.25
2018-11-02T01:39:57.919Z,8.29
2018-11-02T01:40:57.901Z,8.15
2018-11-02T01:41:57.881Z,8.12
2018-11-02T01:42:57.863Z,8.15
2018-11-02T01:43:57.839Z,8.22
2018-11-02T01:44:57.817Z,8.26
2018-11-02T01:45:57.800Z,8.22
2018-11-02T01:46:57.779Z,8.25
2018-11-02T01:47:57.766Z,8.10
2018-11-02T01:48:57.745Z,8.10
2018-11-02T01:49:57.723Z,8.10
2018-11-02T01:50:57.700Z,8.11
2018-11-02T01:51:57.681Z,8.22
2018-11-02T01:52:57.660Z,8.15
2018-11-02T01:53:57.641Z,8.12
2018-11-02T01:54:57.624Z,8.25
2018-11-02T01:55:57.598Z,8.16
2018-11-02T01:56:57.577Z,8.22
2018-11-02T01:57:57.561Z,8.25
2018-11-02T01:58:57.535Z,8.23
2018-11-02T01:59:57.517Z,8.22
2018-11-02T02:00:57.496Z,8.25
2018-11-02T02:01:57.506Z,8.19
2018-11-02T02:02:57.457Z,8.22
2018-11-02T02:03:57.439Z,8.23
2018-11-02T02:04:57.420Z,8.08
2018-11-02T02:05:57.396Z,8.20
2018-11-02T02:06:57.378Z,8.11
2018-11-02T02:07:57.362Z,8.12
2018-11-02T02:08:57.343Z,8.00
2018-11-02T02:09:57.317Z,8.04
2018-11-02T02:10:57.291Z,7.98
2018-11-02T02:11:57.275Z,7.92
2018-11-02T02:12:57.305Z,7.98
2018-11-02T02:13:57.235Z,8.02
2018-11-02T02:14:57.214Z,7.95
2018-11-02T02:15:57.189Z,8.00
2018-11-02T02:16:57.173Z,8.02
2018-11-02T02:17:57.153Z,8.04
2018-11-02T02:18:57.135Z,8.04
2018-11-02T02:19:57.113Z,7.97
2018-11-02T02:20:57.090Z,8.00
2018-11-02T02:21:57.086Z,8.01
2018-11-02T02:22:57.053Z,8.08
2018-11-02T02:23:57.037Z,8.00
2018-11-02T02:24:57.013Z,8.00
2018-11-02T02:25:56.997Z,7.97
2018-11-02T02:26:56.973Z,8.07
2018-11-02T02:27:56.949Z,8.04
2018-11-02T02:28:56.970Z,8.04
2018-11-02T02:29:56.917Z,8.11
2018-11-02T02:30:56.889Z,7.95
2018-11-02T02:31:56.867Z,7.93
2018-11-02T02:32:56.851Z,8.01
2018-11-02T02:33:56.827Z,7.98
2018-11-02T02:34:56.811Z,7.98
2018-11-02T02:35:56.792Z,8.05
2018-11-02T02:36:56.768Z,8.02
2018-11-02T02:37:56.747Z,7.97
2018-11-02T02:38:56.725Z,8.00
2018-11-02T02:39:56.707Z,8.02
2018-11-02T02:40:56.687Z,8.01
2018-11-02T02:41:56.665Z,8.00
2018-11-02T02:42:56.645Z,7.85
2018-11-02T02:43:56.625Z,8.00
2018-11-02T02:44:56.604Z,7.98
2018-11-02T02:45:56.585Z,7.98
2018-11-02T02:46:56.590Z,7.98
2018-11-02T02:47:56.547Z,7.86
2018-11-02T02:48:56.523Z,7.90
2018-11-02T02:49:56.504Z,7.87
2018-11-02T02:50:56.476Z,7.85
2018-11-02T02:51:56.462Z,7.85
2018-11-02T02:52:56.446Z,7.93
2018-11-02T02:53:56.417Z,7.93
2018-11-02T02:54:56.400Z,7.87
2018-11-02T02:55:56.382Z,7.87
2018-11-02T02:56:56.360Z,7.87
2018-11-02T02:57:56.338Z,7.82
2018-11-02T02:58:56.321Z,7.77
2018-11-02T02:59:56.297Z,7.79
2018-11-02T03:00:56.278Z,7.71
2018-11-02T03:01:56.268Z,7.71
2018-11-02T03:02:56.240Z,7.63
2018-11-02T03:03:56.225Z,7.52
2018-11-02T03:04:56.196Z,7.63
2018-11-02T03:05:56.177Z,7.55
2018-11-02T03:06:56.154Z,7.60
2018-11-02T03:07:56.134Z,7.57
2018-11-02T03:08:56.114Z,7.57
2018-11-02T03:09:56.092Z,7.60
2018-11-02T03:10:56.257Z,7.61
2018-11-02T03:11:56.055Z,7.68
2018-11-02T03:12:56.033Z,7.68
2018-11-02T03:13:56.016Z,7.63
2018-11-02T03:14:56.041Z,7.60
2018-11-02T03:15:55.971Z,7.58
2018-11-02T03:16:55.951Z,7.67
2018-11-02T03:17:55.934Z,7.72
2018-11-02T03:18:55.908Z,7.67
2018-11-02T03:19:55.890Z,7.72
2018-11-02T03:20:55.872Z,7.68
2018-11-02T03:21:55.850Z,7.75
2018-11-02T03:22:55.828Z,7.72
2018-11-02T03:23:55.810Z,7.75
2018-11-02T03:24:55.784Z,7.79
2018-11-02T03:25:55.774Z,7.72
2018-11-02T03:26:55.743Z,7.77
2018-11-02T03:27:55.728Z,7.79
2018-11-02T03:28:55.710Z,7.82
2018-11-02T03:29:55.717Z,7.72
2018-11-02T03:30:55.663Z,7.72
2018-11-02T03:31:55.646Z,7.82
2018-11-02T03:32:55.628Z,7.80
2018-11-02T03:33:55.604Z,7.86
2018-11-02T03:34:55.584Z,7.86
2018-11-02T03:35:55.564Z,7.82
2018-11-02T03:36:55.540Z,7.85
2018-11-02T03:37:55.520Z,7.85
2018-11-02T03:38:55.505Z,7.89
2018-11-02T03:39:55.482Z,7.93
2018-11-02T03:40:55.480Z,7.90
2018-11-02T03:41:55.441Z,7.83
2018-11-02T03:42:55.424Z,7.85
2018-11-02T03:43:55.400Z,7.89
2018-11-02T03:44:55.376Z,7.90
2018-11-02T03:45:55.363Z,7.92
2018-11-02T03:46:55.336Z,7.86
2018-11-02T03:47:55.321Z,7.80
2018-11-02T03:48:55.296Z,7.71
2018-11-02T03:49:55.288Z,7.64
2018-11-02T03:50:55.286Z,7.60
2018-11-02T03:51:55.236Z,7.49
2018-11-02T03:52:55.215Z,7.46
2018-11-02T03:53:55.195Z,7.46
2018-11-02T03:54:55.177Z,7.53
2018-11-02T03:55:55.154Z,7.49
2018-11-02T03:56:55.237Z,7.50
2018-11-02T03:57:55.115Z,7.48
2018-11-02T03:58:55.097Z,7.45
2018-11-02T03:59:55.069Z,7.60
2018-11-02T04:00:55.293Z,7.57
2018-11-02T04:01:55.037Z,7.60
2018-11-02T04:02:55.010Z,7.61
2018-11-02T04:03:54.989Z,7.68
2018-11-02T04:04:54.969Z,7.58
2018-11-02T04:05:54.949Z,7.52
2018-11-02T04:06:54.931Z,7.52
2018-11-02T04:07:54.907Z,7.60
2018-11-02T04:08:54.886Z,7.63
2018-11-02T04:09:54.870Z,7.55
2018-11-02T04:10:54.845Z,7.52
2018-11-02T04:11:54.831Z,7.53
2018-11-02T04:12:54.829Z,7.48
2018-11-02T04:13:54.787Z,7.50
2018-11-02T04:14:54.767Z,7.40
2018-11-02T04:15:54.749Z,7.40
2018-11-02T04:16:54.731Z,7.43
2018-11-02T04:17:54.708Z,7.31
2018-11-02T04:18:54.692Z,7.23
2018-11-02T04:19:54.663Z,7.23
2018-11-02T04:20:54.643Z,7.17
2018-11-02T04:21:54.622Z,7.10
2018-11-02T04:22:54.600Z,7.12
2018-11-02T04:23:54.579Z,7.10
2018-11-02T04:24:54.564Z,6.99
2018-11-02T04:25:54.539Z,6.92
2018-11-02T04:26:54.521Z,6.88
2018-11-02T04:27:54.497Z,6.91
2018-11-02T04:28:54.475Z,6.85
2018-11-02T04:29:54.457Z,6.88
2018-11-02T04:30:54.537Z,6.76
2018-11-02T04:31:54.409Z,6.84
2018-11-02T04:32:54.395Z,6.73
2018-11-02T04:33:54.373Z,6.73
2018-11-02T04:34:54.354Z,6.77
2018-11-02T04:35:54.333Z,6.76
2018-11-02T04:36:54.307Z,6.74
2018-11-02T04:37:54.294Z,6.77
2018-11-02T04:38:54.269Z,6.73
2018-11-02T04:39:54.250Z,6.74
2018-11-02T04:40:54.228Z,6.80
2018-11-02T04:41:54.204Z,6.87
2018-11-02T04:42:54.185Z,6.87
2018-11-02T04:43:54.211Z,6.89
2018-11-02T04:44:54.148Z,6.91
2018-11-02T04:45:54.125Z,6.85
2018-11-02T04:46:54.108Z,6.94
2018-11-02T04:47:54.083Z,7.07
2018-11-02T04:48:54.069Z,6.94
2018-11-02T04:49:54.040Z,6.98
2018-11-02T04:50:54.147Z,7.07
2018-11-02T04:51:53.999Z,7.03
2018-11-02T04:52:53.976Z,6.98
2018-11-02T04:53:53.958Z,7.02
2018-11-02T04:54:53.938Z,6.99
2018-11-02T04:55:53.919Z,6.92
2018-11-02T04:56:53.897Z,6.97
2018-11-02T04:57:53.875Z,7.02
2018-11-02T04:58:53.854Z,6.92
2018-11-02T04:59:53.843Z,6.88
2018-11-02T05:00:53.815Z,6.94
2018-11-02T05:01:53.800Z,6.94
2018-11-02T05:02:53.769Z,6.91
2018-11-02T05:03:53.755Z,6.91
2018-11-02T05:04:53.737Z,6.88
2018-11-02T05:05:53.724Z,6.80
2018-11-02T05:06:53.685Z,6.76
2018-11-02T05:07:53.669Z,6.84
2018-11-02T05:08:53.655Z,6.84
2018-11-02T05:09:53.707Z,6.74
2018-11-02T05:10:53.612Z,6.73
2018-11-02T05:11:53.581Z,6.74
2018-11-02T05:12:53.566Z,6.71
2018-11-02T05:13:53.543Z,6.77
2018-11-02T05:14:53.519Z,6.74
2018-11-02T05:15:53.497Z,6.76
2018-11-02T05:16:53.479Z,6.71
2018-11-02T05:17:53.464Z,6.74
2018-11-02T05:18:53.441Z,6.73
2018-11-02T05:19:53.420Z,6.77
2018-11-02T05:20:53.393Z,6.79
2018-11-02T05:21:53.377Z,6.76
2018-11-02T05:22:53.356Z,6.73
2018-11-02T05:23:53.338Z,6.74
2018-11-02T05:24:53.312Z,6.69
2018-11-02T05:25:53.293Z,6.67
2018-11-02T05:26:53.273Z,6.69
2018-11-02T05:27:53.253Z,6.55
2018-11-02T05:28:53.232Z,6.58
2018-11-02T05:29:53.211Z,6.54
2018-11-02T05:30:53.189Z,6.54
2018-11-02T05:31:53.167Z,6.66
2018-11-02T05:32:53.149Z,6.51
2018-11-02T05:33:53.129Z,6.59
2018-11-02T05:34:53.102Z,6.44
2018-11-02T05:35:53.083Z,6.51
2018-11-02T05:36:53.063Z,6.49
2018-11-02T05:37:53.046Z,6.51
2018-11-02T05:38:53.022Z,6.48
2018-11-02T05:39:52.999Z,6.43
2018-11-02T05:40:52.983Z,6.46
2018-11-02T05:41:52.957Z,6.49
2018-11-02T05:42:52.946Z,6.54
2018-11-02T05:43:52.917Z,6.41
2018-11-02T05:44:52.931Z,6.44
2018-11-02T05:45:52.878Z,6.46
2018-11-02T05:46:52.855Z,6.44
2018-11-02T05:47:52.847Z,6.52
2018-11-02T05:48:52.820Z,6.44
2018-11-02T05:49:52.791Z,6.40
2018-11-02T05:50:52.769Z,6.51
2018-11-02T05:51:52.753Z,6.49
2018-11-02T05:52:52.740Z,6.55
2018-11-02T05:53:52.709Z,6.44
2018-11-02T05:54:52.716Z,6.44
2018-11-02T05:55:52.667Z,6.43
2018-11-02T05:57:52.627Z,6.43
2018-11-02T05:58:52.640Z,6.34
2018-11-02T05:59:52.583Z,6.33
2018-11-02T06:00:52.561Z,6.25
2018-11-02T06:01:52.543Z,6.25
2018-11-02T06:02:52.521Z,6.15
2018-11-02T06:03:52.503Z,6.08
2018-11-02T06:04:52.484Z,6.25
2018-11-02T06:05:52.508Z,6.17
2018-11-02T06:06:52.432Z,6.14
2018-11-02T06:07:52.451Z,6.15
2018-11-02T06:08:52.423Z,5.97
2018-11-02T06:09:52.371Z,5.99
2018-11-02T06:10:52.351Z,5.90
2018-11-02T06:11:52.332Z,5.90
2018-11-02T06:12:52.307Z,5.86
2018-11-02T06:13:52.290Z,5.83
2018-11-02T06:14:52.270Z,5.91
2018-11-02T06:15:52.248Z,5.91
2018-11-02T06:16:52.301Z,5.99
2018-11-02T06:17:52.204Z,6.00
2018-11-02T06:18:52.186Z,6.04
2018-11-02T06:19:52.164Z,5.93
2018-11-02T06:20:52.138Z,5.86
2018-11-02T06:21:52.118Z,5.89
2018-11-02T06:22:52.098Z,5.81
2018-11-02T06:23:52.087Z,5.82
2018-11-02T06:24:52.066Z,5.76
2018-11-02T06:25:52.040Z,5.63
2018-11-02T06:26:52.014Z,5.60
2018-11-02T06:27:51.998Z,5.71
2018-11-02T06:28:51.971Z,5.67
2018-11-02T06:29:51.980Z,5.64
2018-11-02T06:30:51.930Z,5.63
2018-11-02T06:31:51.914Z,5.71
2018-11-02T06:32:52.006Z,5.60
2018-11-02T06:33:51.866Z,5.63
2018-11-02T06:34:51.848Z,5.60
2018-11-02T06:35:51.824Z,5.63
2018-11-02T06:36:51.803Z,5.63
2018-11-02T06:37:51.785Z,5.57
2018-11-02T06:38:51.828Z,5.57
2018-11-02T06:39:51.740Z,5.64
2018-11-02T06:40:51.717Z,5.61
2018-11-02T06:41:51.700Z,5.57
2018-11-02T06:42:51.678Z,5.56
2018-11-02T06:43:51.657Z,5.64
2018-11-02T06:44:51.658Z,5.64
2018-11-02T06:45:51.616Z,5.68
2018-11-02T06:46:51.591Z,5.78
2018-11-02T06:47:51.569Z,5.79
2018-11-02T06:48:51.557Z,5.89
2018-11-02T06:49:51.528Z,5.90
2018-11-02T06:50:51.521Z,5.93
2018-11-02T06:51:51.489Z,5.91
2018-11-02T06:52:51.476Z,5.90
2018-11-02T06:53:51.447Z,5.83
2018-11-02T06:54:51.424Z,5.79
2018-11-02T06:55:51.404Z,5.93
2018-11-02T06:56:51.387Z,5.83
2018-11-02T06:57:51.358Z,5.82
2018-11-02T06:58:51.342Z,5.85
2018-11-02T06:59:51.503Z,5.83
2018-11-02T07:00:51.301Z,5.90
2018-11-02T07:01:51.271Z,5.83
2018-11-02T07:02:51.277Z,5.85
2018-11-02T07:03:51.230Z,5.81
2018-11-02T07:04:51.209Z,5.83
2018-11-02T07:05:51.188Z,5.78
2018-11-02T07:06:51.168Z,5.90
2018-11-02T07:07:51.273Z,5.91
2018-11-02T07:08:51.133Z,5.89
2018-11-02T07:09:51.134Z,6.04
2018-11-02T07:10:51.093Z,6.12
2018-11-02T07:11:51.059Z,6.18
2018-11-02T07:12:51.045Z,6.22
2018-11-02T07:13:51.026Z,6.37
2018-11-02T07:14:50.997Z,6.46
2018-11-02T07:15:50.985Z,6.49
2018-11-02T07:16:50.962Z,6.44
2018-11-02T07:17:50.939Z,6.51
2018-11-02T07:18:50.912Z,6.64
2018-11-02T07:19:50.891Z,6.71
2018-11-02T07:20:51.197Z,6.74
2018-11-02T07:21:50.854Z,6.88
2018-11-02T07:22:50.839Z,6.84
2018-11-02T07:23:50.954Z,6.99
2018-11-02T07:24:50.834Z,7.09
2018-11-02T07:25:50.771Z,7.24
2018-11-02T07:26:50.750Z,7.32
2018-11-02T07:27:50.763Z,7.49
2018-11-02T07:28:50.705Z,7.53
2018-11-02T07:29:50.688Z,7.60
2018-11-02T07:30:50.662Z,7.71
2018-11-02T07:31:50.648Z,7.67
2018-11-02T07:32:50.624Z,7.83
2018-11-02T07:33:50.606Z,7.87
2018-11-02T07:34:50.580Z,7.97
2018-11-02T07:35:50.557Z,8.00
2018-11-02T07:36:50.544Z,8.10
2018-11-02T07:37:50.520Z,8.11
2018-11-02T07:38:50.507Z,8.16
2018-11-02T07:39:50.480Z,8.22
2018-11-02T07:40:50.460Z,8.22
2018-11-02T07:41:50.438Z,8.29
2018-11-02T07:42:50.413Z,8.38
2018-11-02T07:43:50.393Z,8.45
2018-11-02T07:44:50.378Z,8.43
2018-11-02T07:45:50.360Z,8.48
2018-11-02T07:46:50.331Z,8.50
2018-11-02T07:47:50.598Z,8.58
2018-11-02T07:48:50.293Z,8.55
2018-11-02T07:49:50.270Z,8.62
2018-11-02T07:50:50.251Z,8.74
2018-11-02T07:51:50.229Z,8.73
2018-11-02T07:52:50.212Z,8.80
2018-11-02T07:53:50.192Z,8.83
2018-11-02T07:54:50.169Z,8.83
2018-11-02T07:55:50.153Z,8.92
2018-11-02T07:56:50.129Z,9.10
2018-11-02T07:57:50.112Z,9.10
2018-11-02T07:58:50.087Z,9.20
2018-11-02T07:59:50.070Z,9.36
2018-11-02T08:00:50.056Z,9.36
2018-11-02T08:01:50.057Z,9.33
2018-11-02T08:02:50.008Z,9.47
2018-11-02T08:03:50.123Z,9.47
2018-11-02T08:04:49.969Z,9.56
2018-11-02T08:05:49.945Z,9.65
2018-11-02T08:06:49.928Z,9.69
2018-11-02T08:07:49.913Z,9.75
2018-11-02T08:08:49.890Z,9.90
2018-11-02T08:09:49.867Z,9.86
2018-11-02T08:10:49.845Z,9.90
2018-11-02T08:11:49.827Z,10.04
2018-11-02T08:12:49.803Z,10.05
2018-11-02T08:13:49.787Z,10.15
2018-11-02T08:14:49.764Z,10.22
2018-11-02T08:15:49.743Z,10.27
2018-11-02T08:16:49.728Z,10.25
2018-11-02T08:17:49.771Z,10.25
2018-11-02T08:18:49.728Z,10.34
2018-11-02T08:19:49.669Z,10.47
2018-11-02T08:20:49.651Z,10.52
2018-11-02T08:21:49.627Z,10.66
2018-11-02T08:22:49.617Z,10.70
2018-11-02T08:23:49.589Z,10.84
2018-11-02T08:24:49.565Z,10.86
2018-11-02T08:25:49.545Z,10.94
2018-11-02T08:26:49.531Z,10.86
2018-11-02T08:27:49.511Z,10.96
2018-11-02T08:28:49.485Z,10.99
2018-11-02T08:29:49.467Z,11.09
2018-11-02T08:30:49.448Z,11.14
2018-11-02T08:31:49.469Z,11.24
2018-11-02T08:32:49.415Z,11.32
2018-11-02T08:33:49.385Z,11.29
2018-11-02T08:34:49.367Z,11.42
2018-11-02T08:35:49.349Z,11.49
2018-11-02T08:36:49.332Z,11.47
2018-11-02T08:37:49.319Z,11.61
2018-11-02T08:38:49.294Z,11.69
2018-11-02T08:39:49.282Z,11.73
2018-11-02T08:40:49.250Z,11.75
2018-11-02T08:41:49.237Z,11.73
2018-11-02T08:42:49.213Z,11.80
2018-11-02T08:43:49.195Z,11.83
2018-11-02T08:44:49.171Z,11.79
2018-11-02T08:45:49.158Z,11.86
2018-11-02T08:46:49.137Z,11.94
2018-11-02T08:47:49.121Z,11.91
2018-11-02T08:48:49.102Z,11.99
2018-11-02T08:49:49.079Z,12.04
2018-11-02T08:50:49.061Z,12.10
2018-11-02T08:51:49.047Z,12.29
2018-11-02T08:52:49.024Z,12.42
2018-11-02T08:53:49.007Z,12.49
2018-11-02T08:54:48.983Z,12.59
2018-11-02T08:55:48.965Z,12.71
2018-11-02T08:56:48.947Z,12.82
2018-11-02T08:57:49.083Z,12.79
2018-11-02T08:58:49.224Z,12.92
2018-11-02T08:59:48.969Z,13.15
2018-11-02T09:00:48.876Z,13.77
2018-11-02T09:01:48.861Z,14.27
2018-11-02T09:02:48.835Z,14.84
2018-11-02T09:03:48.820Z,15.56
2018-11-02T09:04:48.858Z,16.12
2018-11-02T09:05:48.786Z,16.68
2018-11-02T09:06:48.765Z,16.94
2018-11-02T09:07:48.753Z,16.96
2018-11-02T09:08:48.729Z,17.04
2018-11-02T09:09:48.718Z,17.26
2018-11-02T09:10:48.693Z,17.55
2018-11-02T09:11:48.679Z,17.49
2018-11-02T09:12:48.659Z,17.51
2018-11-02T09:13:48.645Z,17.92
2018-11-02T09:14:48.627Z,18.15
2018-11-02T09:15:48.607Z,18.15
2018-11-02T09:16:48.591Z,18.37
2018-11-02T09:17:48.581Z,18.35
2018-11-02T09:18:48.741Z,18.39
2018-11-02T09:19:48.542Z,18.67
2018-11-02T09:20:48.526Z,18.88
2018-11-02T09:21:48.511Z,18.88
2018-11-02T09:22:48.499Z,18.69
2018-11-02T09:23:48.480Z,18.45
2018-11-02T09:24:48.533Z,18.33
2018-11-02T09:25:48.455Z,18.37
2018-11-02T09:26:48.443Z,18.51
2018-11-02T09:27:48.626Z,18.48
2018-11-02T09:28:48.409Z,18.35
2018-11-02T09:29:48.401Z,18.03
2018-11-02T09:30:48.383Z,17.74
2018-11-02T09:31:48.399Z,17.30
2018-11-02T09:32:48.350Z,16.81
2018-11-02T09:33:48.337Z,16.46
2018-11-02T09:34:48.317Z,16.23
2018-11-02T09:35:48.307Z,16.01
2018-11-02T09:36:48.293Z,15.80
2018-11-02T09:37:48.281Z,15.69
2018-11-02T09:38:48.265Z,15.83
2018-11-02T09:39:48.250Z,15.72
2018-11-02T09:40:48.235Z,15.43
2018-11-02T09:41:48.217Z,15.41
2018-11-02T09:42:48.347Z,15.39
2018-11-02T09:43:48.189Z,15.13
2018-11-02T09:44:48.176Z,15.10
2018-11-02T09:45:48.166Z,15.21
2018-11-02T09:46:48.149Z,15.25
2018-11-02T09:47:48.136Z,15.25
2018-11-02T09:48:48.119Z,15.36
2018-11-02T09:49:48.111Z,15.38
2018-11-02T09:50:48.090Z,15.67
2018-11-02T09:51:48.203Z,16.01
2018-11-02T09:52:48.062Z,16.24
2018-11-02T09:53:48.047Z,16.20
2018-11-02T09:54:48.033Z,16.25
2018-11-02T09:55:48.015Z,16.21
2018-11-02T09:56:48.007Z,16.11
2018-11-02T09:57:48.086Z,16.14
2018-11-02T09:58:47.975Z,15.93
2018-11-02T09:59:47.960Z,16.04
2018-11-02T10:00:48.093Z,16.11
2018-11-02T10:01:47.934Z,16.27
2018-11-02T10:02:47.916Z,16.53
2018-11-02T10:03:47.913Z,16.66
2018-11-02T10:04:47.889Z,16.94
2018-11-02T10:05:47.873Z,16.97
2018-11-02T10:06:47.859Z,16.97
2018-11-02T10:07:47.843Z,16.93
2018-11-02T10:08:47.826Z,16.79
2018-11-02T10:09:47.822Z,16.63
2018-11-02T10:10:47.802Z,16.53
2018-11-02T10:11:47.784Z,16.60
2018-11-02T10:12:47.770Z,16.48
2018-11-02T10:13:47.758Z,16.41
2018-11-02T10:14:47.744Z,16.27
2018-11-02T10:15:47.735Z,16.27
2018-11-02T10:16:47.713Z,16.21
2018-11-02T10:17:47.701Z,16.09
2018-11-02T10:18:47.686Z,16.14
2018-11-02T10:19:47.685Z,16.01
2018-11-02T10:20:47.659Z,15.93
2018-11-02T10:21:47.683Z,15.94
2018-11-02T10:22:47.632Z,15.96
2018-11-02T10:23:47.649Z,16.20
2018-11-02T10:24:47.603Z,16.38
2018-11-02T10:25:47.587Z,16.53
2018-11-02T10:26:47.572Z,16.57
2018-11-02T10:27:47.561Z,16.53
2018-11-02T10:28:47.543Z,16.57
2018-11-02T10:29:47.539Z,16.75
2018-11-02T10:30:47.522Z,16.85
2018-11-02T10:31:47.506Z,17.00
2018-11-02T10:32:47.487Z,17.16
2018-11-02T10:33:47.480Z,17.15
2018-11-02T10:34:47.460Z,17.15
2018-11-02T10:35:47.451Z,17.22
2018-11-02T10:36:47.438Z,17.15
2018-11-02T10:37:47.422Z,17.07
2018-11-02T10:38:47.410Z,16.79
2018-11-02T10:39:47.493Z,16.53
2018-11-02T10:40:47.386Z,16.42
2018-11-02T10:41:47.363Z,16.33
2018-11-02T10:42:47.355Z,16.23
2018-11-02T10:43:47.338Z,16.24
2018-11-02T10:44:47.398Z,16.27
2018-11-02T10:45:47.310Z,16.17
2018-11-02T10:46:47.292Z,16.14
2018-11-02T10:48:08.576Z,16.24
2018-11-02T10:49:08.624Z,16.09
2018-11-02T10:50:08.554Z,16.07
2018-11-02T10:51:08.553Z,16.07
2018-11-02T10:52:08.528Z,16.12
2018-11-02T10:53:08.511Z,16.11
2018-11-02T10:54:08.494Z,16.23
2018-11-02T10:55:08.482Z,16.30
2018-11-02T10:56:08.472Z,16.30
2018-11-02T10:57:08.480Z,16.24
2018-11-02T10:58:08.448Z,16.21
2018-11-02T10:59:08.428Z,16.23
2018-11-02T11:00:08.413Z,16.21
2018-11-02T11:01:08.595Z,16.39
2018-11-02T11:02:08.394Z,16.25
2018-11-02T11:03:08.369Z,16.20
2018-11-02T11:04:08.359Z,16.24
2018-11-02T11:05:08.405Z,16.11
2018-11-02T11:06:08.327Z,16.05
2018-11-02T11:07:08.315Z,16.00
2018-11-02T11:08:08.305Z,16.11
2018-11-02T11:09:08.286Z,16.08
2018-11-02T11:10:08.279Z,16.01
2018-11-02T11:11:08.263Z,15.97
2018-11-02T11:12:08.318Z,15.93
2018-11-02T11:13:08.522Z,15.89
2018-11-02T11:14:08.216Z,15.86
2018-11-02T11:15:08.206Z,15.92
2018-11-02T11:16:08.188Z,15.97
2018-11-02T11:17:08.181Z,15.92
2018-11-02T11:18:08.164Z,16.09
2018-11-02T11:19:08.150Z,16.08
2018-11-02T11:20:08.132Z,16.27
2018-11-02T11:21:08.129Z,16.23
2018-11-02T11:22:08.105Z,16.17
2018-11-02T11:23:08.097Z,16.00
2018-11-02T11:24:08.079Z,15.90
2018-11-02T11:25:08.067Z,16.02
2018-11-02T11:26:08.052Z,16.01
2018-11-02T11:27:08.037Z,15.96
2018-11-02T11:28:08.032Z,15.90
2018-11-02T11:29:08.043Z,15.90
2018-11-02T11:30:07.993Z,15.96
2018-11-02T11:31:07.983Z,15.90
2018-11-02T11:32:07.967Z,15.97
2018-11-02T11:33:07.950Z,15.94
2018-11-02T11:34:07.967Z,16.05
2018-11-02T11:35:07.919Z,16.00
2018-11-02T11:36:07.926Z,15.96
2018-11-02T11:37:07.895Z,16.07
2018-11-02T11:38:07.886Z,16.01
2018-11-02T11:39:07.869Z,16.09
2018-11-02T11:40:07.853Z,16.04
2018-11-02T11:41:07.839Z,15.92
2018-11-02T11:42:07.822Z,15.97
2018-11-02T11:43:07.810Z,15.92
2018-11-02T11:44:07.801Z,16.02
2018-11-02T11:45:07.778Z,16.07
2018-11-02T11:46:07.771Z,16.17
2018-11-02T11:47:07.750Z,16.27
2018-11-02T11:48:07.738Z,16.24
2018-11-02T11:49:07.825Z,16.23
2018-11-02T11:50:07.711Z,16.25
2018-11-02T11:51:07.697Z,16.27
2018-11-02T11:52:07.682Z,16.21
2018-11-02T11:53:07.669Z,16.33
2018-11-02T11:54:07.653Z,16.17
2018-11-02T11:55:07.644Z,16.08
2018-11-02T11:56:07.634Z,16.11
2018-11-02T11:57:07.611Z,16.08
2018-11-02T11:58:07.595Z,15.97
2018-11-02T11:59:07.583Z,16.02
2018-11-02T12:00:07.567Z,16.00
2018-11-02T12:01:07.552Z,15.97
2018-11-02T12:02:07.565Z,16.00
2018-11-02T12:03:07.535Z,15.87
2018-11-02T12:04:07.516Z,15.87
2018-11-02T12:05:07.497Z,15.83
2018-11-02T12:06:07.480Z,15.92
2018-11-02T12:07:07.475Z,15.97
2018-11-02T12:08:07.455Z,16.11
2018-11-02T12:09:07.461Z,16.04
2018-11-02T12:10:07.454Z,16.14
2018-11-02T12:11:07.409Z,16.01
2018-11-02T12:12:07.397Z,16.07
2018-11-02T12:13:07.379Z,16.09
2018-11-02T12:14:07.366Z,16.12
2018-11-02T12:15:07.351Z,16.20
2018-11-02T12:16:07.478Z,16.25
2018-11-02T12:17:07.323Z,16.25
2018-11-02T12:18:07.311Z,16.31
2018-11-02T12:19:07.300Z,16.28
2018-11-02T12:20:07.282Z,16.15
2018-11-02T12:21:07.268Z,16.39
2018-11-02T12:22:07.250Z,16.31
2018-11-02T12:23:07.239Z,16.38
2018-11-02T12:24:07.221Z,16.28
2018-11-02T12:25:07.205Z,16.27
2018-11-02T12:26:07.194Z,16.21
2018-11-02T12:27:07.177Z,16.09
2018-11-02T12:28:07.164Z,16.04
2018-11-02T12:29:07.143Z,16.04
2018-11-02T12:30:07.129Z,16.04
2018-11-02T12:31:07.122Z,16.02
2018-11-02T12:32:07.106Z,15.89
2018-11-02T12:33:07.095Z,16.02
2018-11-02T12:34:07.073Z,15.94
2018-11-02T12:35:07.087Z,16.04
2018-11-02T12:36:07.052Z,16.02
2018-11-02T12:37:07.094Z,16.09
2018-11-02T12:38:07.076Z,16.09
2018-11-02T12:39:07.005Z,15.97
2018-11-02T12:40:06.985Z,16.09
2018-11-02T12:41:06.965Z,16.05
2018-11-02T12:42:06.949Z,16.12
2018-11-02T12:43:07.002Z,16.12
2018-11-02T12:44:06.924Z,16.17
2018-11-02T12:45:06.911Z,16.33
2018-11-02T12:46:06.904Z,16.28
2018-11-02T12:47:06.879Z,16.33
2018-11-02T12:48:07.075Z,16.24
2018-11-02T12:49:07.050Z,16.25
2018-11-02T12:50:06.887Z,16.28
2018-11-02T12:51:06.825Z,16.17
2018-11-02T12:52:06.807Z,16.23
2018-11-02T12:53:06.792Z,16.23
2018-11-02T12:54:06.773Z,16.21
2018-11-02T12:55:06.762Z,16.24
2018-11-02T12:56:06.742Z,16.21
2018-11-02T12:57:06.729Z,16.39
2018-11-02T12:58:06.714Z,16.20
2018-11-02T12:59:06.703Z,16.33
2018-11-02T13:00:06.689Z,16.30
2018-11-02T13:01:06.670Z,16.39
2018-11-02T13:02:06.657Z,16.31
2018-11-02T13:03:06.640Z,16.27
2018-11-02T13:04:06.629Z,16.24
2018-11-02T13:05:06.613Z,16.25
2018-11-02T13:06:06.596Z,16.28
2018-11-02T13:07:06.589Z,16.31
2018-11-02T13:08:06.569Z,16.30
2018-11-02T13:09:06.549Z,16.30
2018-11-02T13:10:06.534Z,16.28